Time;durP1;ratioP1;P1;durP2;ratioP2;P2;SDS_P1;SDS_P2;PMS_P1;PMS_P2;Temp;Humidity;BMP_temperature;BMP_pressure;BME280_temperature;BME280_humidity;BME280_pressure;Samples;Min_cycle;Max_cycle;Signal;HPM_P1;HPM_P2
2021/11/19 00:01:55;;;;;;;12.63;6.10;;;15.00;99.90;;;;;;5097249;28;20039;-61
2021/11/19 00:04:24;;;;;;;12.88;7.40;;;15.00;99.90;;;;;;5091063;28;20071;-61
2021/11/19 00:06:53;;;;;;;12.45;6.78;;;15.00;99.90;;;;;;5080379;28;20048;-61
2021/11/19 00:09:22;;;;;;;13.20;7.78;;;15.00;99.90;;;;;;5080566;28;20043;-61
2021/11/19 00:11:51;;;;;;;11.23;6.57;;;15.00;99.90;;;;;;5077326;28;20109;-61
2021/11/19 00:14:20;;;;;;;9.93;6.07;;;15.10;99.90;;;;;;5107279;28;20066;-61
2021/11/19 00:16:55;;;;;;;7.72;4.50;;;15.00;99.90;;;;;;5096949;28;20032;-61
2021/11/19 00:19:24;;;;;;;8.10;5.38;;;15.10;99.90;;;;;;5079218;28;20047;-61
2021/11/19 00:21:52;;;;;;;11.40;5.20;;;15.10;99.90;;;;;;5055530;28;20139;-61
2021/11/19 00:24:20;;;;;;;7.13;4.05;;;15.10;99.90;;;;;;5075085;28;20032;-61
2021/11/19 00:26:48;;;;;;;11.70;5.53;;;15.10;99.90;;;;;;5109320;28;20071;-62
2021/11/19 00:29:17;;;;;;;7.63;5.15;;;15.10;99.90;;;;;;5114647;28;20036;-61
2021/11/19 00:31:46;;;;;;;8.77;4.82;;;15.10;99.90;;;;;;5096736;28;20472;-61
2021/11/19 00:34:15;;;;;;;9.20;5.18;;;15.10;99.90;;;;;;5080912;28;20051;-61
2021/11/19 00:36:44;;;;;;;6.32;4.13;;;15.10;99.90;;;;;;5096912;28;20043;-61
2021/11/19 00:39:18;;;;;;;7.70;4.97;;;15.10;99.90;;;;;;5072636;28;20044;-61
2021/11/19 00:41:46;;;;;;;8.95;3.88;;;15.10;99.90;;;;;;5085725;28;20436;-61
2021/11/19 00:44:16;;;;;;;10.70;5.05;;;15.10;99.90;;;;;;5096998;28;20044;-62
2021/11/19 00:46:45;;;;;;;11.63;5.15;;;15.10;99.90;;;;;;5060261;28;20528;-61
2021/11/19 00:49:15;;;;;;;7.32;4.00;;;15.10;99.90;;;;;;5087310;28;20043;-63
2021/11/19 00:51:46;;;;;;;9.98;4.70;;;15.10;99.90;;;;;;5093242;28;20486;-62
2021/11/19 00:54:15;;;;;;;8.20;3.60;;;15.10;99.90;;;;;;5111443;28;20067;-61
2021/11/19 00:56:49;;;;;;;7.18;3.95;;;15.10;99.90;;;;;;5096751;28;20055;-61
2021/11/19 00:59:19;;;;;;;7.25;4.43;;;15.10;99.90;;;;;;5062059;28;20055;-61
2021/11/19 01:01:54;;;;;;;11.38;5.28;;;15.10;99.90;;;;;;5081360;28;20086;-61
2021/11/19 01:04:22;;;;;;;10.30;4.40;;;15.10;99.90;;;;;;5095784;28;20036;-61
2021/11/19 01:06:50;;;;;;;6.32;4.53;;;15.10;99.90;;;;;;5092293;28;20123;-61
2021/11/19 01:09:26;;;;;;;7.75;4.15;;;15.00;99.90;;;;;;5075058;28;20043;-61
2021/11/19 01:11:55;;;;;;;8.48;3.58;;;15.00;99.90;;;;;;5091387;28;20048;-61
2021/11/19 01:14:34;;;;;;;10.10;4.40;;;15.00;99.90;;;;;;5068535;28;20050;-61
2021/11/19 01:17:08;;;;;;;5.68;3.28;;;14.90;99.90;;;;;;5062535;28;20128;-61
2021/11/19 01:19:49;;;;;;;6.90;3.07;;;14.90;99.90;;;;;;5078604;28;20524;-61
2021/11/19 01:22:21;;;;;;;6.10;3.95;;;14.90;99.90;;;;;;5083389;28;20039;-61
2021/11/19 01:24:50;;;;;;;6.40;3.15;;;14.90;99.90;;;;;;5097451;28;20109;-61
2021/11/19 01:27:20;;;;;;;9.73;4.38;;;14.90;99.90;;;;;;5077391;28;20035;-62
2021/11/19 01:29:49;;;;;;;9.27;4.38;;;14.80;99.90;;;;;;5113751;28;20513;-61
2021/11/19 01:32:23;;;;;;;5.70;4.05;;;14.80;99.90;;;;;;5079273;28;20040;-61
2021/11/19 01:35:24;;;;;;;10.40;4.00;;;14.80;99.90;;;;;;5060170;28;20054;-61
2021/11/19 01:38:07;;;;;;;6.43;3.58;;;14.80;99.90;;;;;;5045292;28;20590;-61
2021/11/19 01:40:53;;;;;;;5.47;2.92;;;14.80;99.90;;;;;;5079956;28;20046;-62
2021/11/19 01:43:28;;;;;;;8.05;3.50;;;14.80;99.90;;;;;;5079920;28;20514;-61
2021/11/19 01:46:00;;;;;;;7.75;3.70;;;14.80;99.90;;;;;;5096817;28;20127;-61
2021/11/19 01:48:39;;;;;;;9.27;3.67;;;14.80;99.90;;;;;;5080532;28;20032;-61
2021/11/19 01:51:44;;;;;;;6.13;3.35;;;14.80;99.90;;;;;;5079814;28;20394;-62
2021/11/19 01:54:39;;;;;;;6.32;3.72;;;14.80;99.90;;;;;;5096801;28;20161;-61
2021/11/19 01:57:21;;;;;;;7.68;4.03;;;14.80;99.90;;;;;;5096628;28;20367;-61
2021/11/19 01:59:56;;;;;;;9.27;3.90;;;14.80;99.90;;;;;;5080103;28;20047;-61
2021/11/19 02:02:38;;;;;;;6.35;4.13;;;14.80;99.90;;;;;;5063546;28;20074;-61
2021/11/19 02:05:12;;;;;;;6.32;3.30;;;14.80;99.90;;;;;;5096528;28;20398;-62
2021/11/19 02:07:45;;;;;;;8.30;4.53;;;14.80;99.90;;;;;;5096470;28;20040;-63
2021/11/19 02:10:44;;;;;;;6.88;3.67;;;14.80;99.90;;;;;;5057737;28;20505;-61
2021/11/19 02:13:18;;;;;;;6.47;3.53;;;14.80;99.90;;;;;;5079679;28;20053;-61
2021/11/19 02:16:01;;;;;;;9.35;3.90;;;14.80;99.90;;;;;;5079748;28;20043;-61
2021/11/19 02:18:31;;;;;;;7.82;3.03;;;14.70;99.90;;;;;;5096302;28;20032;-61
2021/11/19 02:21:15;;;;;;;8.02;4.22;;;14.70;99.90;;;;;;5114505;28;20067;-61
2021/11/19 02:23:52;;;;;;;5.70;3.13;;;14.70;99.90;;;;;;5079669;28;20035;-60
2021/11/19 02:26:24;;;;;;;7.47;4.30;;;14.70;99.90;;;;;;5096382;28;20084;-60
2021/11/19 02:28:54;;;;;;;6.70;3.45;;;14.70;99.90;;;;;;5079326;28;20036;-61
2021/11/19 02:31:35;;;;;;;6.15;3.60;;;14.80;99.90;;;;;;5096227;28;20048;-61
2021/11/19 02:34:05;;;;;;;6.10;3.65;;;14.80;99.90;;;;;;5096118;28;20397;-61
2021/11/19 02:36:38;;;;;;;6.68;3.00;;;14.80;99.90;;;;;;5079343;28;20069;-61
2021/11/19 02:39:38;;;;;;;9.13;4.53;;;14.70;99.90;;;;;;5096071;28;20073;-61
2021/11/19 02:42:32;;;;;;;6.47;3.70;;;14.80;99.90;;;;;;5075470;28;20401;-62
2021/11/19 02:45:05;;;;;;;9.00;3.83;;;14.70;99.90;;;;;;5079117;28;20375;-61
2021/11/19 02:47:35;;;;;;;9.15;4.68;;;14.70;99.90;;;;;;5095886;28;20040;-61
2021/11/19 02:50:05;;;;;;;6.70;4.28;;;14.70;99.90;;;;;;5078744;28;20044;-61
2021/11/19 02:52:39;;;;;;;6.90;4.40;;;14.70;99.90;;;;;;5062443;28;20150;-61
2021/11/19 02:55:17;;;;;;;5.65;3.67;;;14.70;99.90;;;;;;5078865;28;20051;-61
2021/11/19 02:57:45;;;;;;;5.23;3.13;;;14.80;99.90;;;;;;5078548;28;20457;-61
2021/11/19 03:00:23;;;;;;;7.22;3.90;;;14.80;99.90;;;;;;5079337;28;20428;-61
2021/11/19 03:02:51;;;;;;;5.22;3.15;;;14.80;99.90;;;;;;5079179;28;20126;-61
2021/11/19 03:05:24;;;;;;;6.65;4.45;;;14.80;99.90;;;;;;5095869;28;20044;-61
2021/11/19 03:07:52;;;;;;;8.55;4.72;;;14.80;99.90;;;;;;5079212;28;20482;-61
2021/11/19 03:10:28;;;;;;;9.10;4.80;;;14.80;99.90;;;;;;5062040;28;20045;-61
2021/11/19 03:12:56;;;;;;;8.13;4.50;;;14.80;99.90;;;;;;5079050;28;20062;-61
2021/11/19 03:15:29;;;;;;;8.02;4.03;;;14.80;99.90;;;;;;5113714;28;20292;-61
2021/11/19 03:17:58;;;;;;;6.95;4.10;;;14.80;99.90;;;;;;5079081;28;20042;-61
2021/11/19 03:20:27;;;;;;;8.55;3.92;;;14.80;99.90;;;;;;5078727;28;20040;-61
2021/11/19 03:22:56;;;;;;;7.90;3.55;;;14.80;99.90;;;;;;5082153;28;20455;-61
2021/11/19 03:25:27;;;;;;;9.00;4.32;;;14.80;99.90;;;;;;5099546;28;20039;-61
2021/11/19 03:28:00;;;;;;;8.82;4.25;;;14.80;99.90;;;;;;5083642;28;20040;-61
2021/11/19 03:30:32;;;;;;;8.52;4.30;;;14.80;99.90;;;;;;5099464;28;20036;-61
2021/11/19 03:33:00;;;;;;;7.45;3.95;;;14.80;99.90;;;;;;5099293;28;20398;-61
2021/11/19 03:35:30;;;;;;;8.50;4.22;;;14.80;99.90;;;;;;5082551;28;20379;-61
2021/11/19 03:37:59;;;;;;;6.70;3.90;;;14.80;99.90;;;;;;5066082;28;20089;-61
2021/11/19 03:40:34;;;;;;;6.53;4.47;;;14.80;99.90;;;;;;5082770;28;20039;-61
2021/11/19 03:43:07;;;;;;;8.93;4.80;;;14.80;99.90;;;;;;5099379;28;20032;-61
2021/11/19 03:45:44;;;;;;;8.73;5.63;;;14.70;99.90;;;;;;5082743;28;20036;-61
2021/11/19 03:48:12;;;;;;;;;;;14.80;99.90;;;;;;5099844;28;20071;-61
2021/11/19 03:50:50;;;;;;;10.50;4.95;;;14.70;99.90;;;;;;5081309;28;19965;-61
2021/11/19 03:53:20;;;;;;;11.18;5.93;;;14.70;99.90;;;;;;5082262;28;20036;-61
2021/11/19 03:55:50;;;;;;;8.23;4.53;;;14.70;99.90;;;;;;5098763;28;20082;-61
2021/11/19 03:58:22;;;;;;;9.25;4.88;;;14.70;99.90;;;;;;5098934;28;20481;-61
2021/11/19 04:00:56;;;;;;;8.63;5.65;;;14.70;99.90;;;;;;5065676;28;20075;-61
2021/11/19 04:03:26;;;;;;;8.52;4.03;;;14.70;99.90;;;;;;5065738;28;20101;-61
2021/11/19 04:05:54;;;;;;;7.25;4.40;;;14.70;99.90;;;;;;5065604;28;20101;-61
2021/11/19 04:08:22;;;;;;;7.85;5.03;;;14.70;99.90;;;;;;5098808;28;20119;-61
2021/11/19 04:10:58;;;;;;;12.27;4.80;;;14.70;99.90;;;;;;5083107;28;20401;-61
2021/11/19 04:13:26;;;;;;;9.10;5.57;;;14.70;99.90;;;;;;5081673;28;20513;-61
2021/11/19 04:15:58;;;;;;;7.53;4.63;;;14.70;99.90;;;;;;5098243;28;20414;-61
2021/11/19 04:18:27;;;;;;;9.27;5.85;;;14.70;99.90;;;;;;5098119;28;20040;-61
2021/11/19 04:20:56;;;;;;;8.02;4.47;;;14.70;99.90;;;;;;5065100;28;20058;-61
2021/11/19 04:23:26;;;;;;;7.93;5.10;;;14.70;99.90;;;;;;5081722;28;20047;-61
2021/11/19 04:25:57;;;;;;;9.40;4.93;;;14.80;99.90;;;;;;5081535;28;20048;-61
2021/11/19 04:28:26;;;;;;;8.73;5.13;;;14.70;99.90;;;;;;5081488;28;20385;-61
2021/11/19 04:31:25;;;;;;;7.00;5.05;;;14.70;99.90;;;;;;5089371;28;20148;-61
2021/11/19 04:33:54;;;;;;;9.77;5.43;;;14.70;99.90;;;;;;5097085;28;20035;-63
2021/11/19 04:36:23;;;;;;;8.90;6.07;;;14.70;99.90;;;;;;5081418;28;20109;-61
2021/11/19 04:38:50;;;;;;;7.50;4.78;;;14.70;99.90;;;;;;5098235;28;20428;-61
2021/11/19 04:41:20;;;;;;;8.75;5.38;;;14.70;99.90;;;;;;5081518;28;20483;-61
2021/11/19 04:43:48;;;;;;;11.43;5.22;;;14.70;99.90;;;;;;5098083;28;20122;-61
2021/11/19 04:46:16;;;;;;;8.55;4.63;;;14.70;99.90;;;;;;5081330;28;20040;-61
2021/11/19 04:48:44;;;;;;;11.27;5.68;;;14.70;99.90;;;;;;5081186;28;20046;-61
2021/11/19 04:51:19;;;;;;;7.97;4.60;;;14.70;99.90;;;;;;5064261;28;20097;-62
2021/11/19 04:53:48;;;;;;;10.40;6.18;;;14.60;99.90;;;;;;5064556;28;20079;-61
2021/11/19 04:56:16;;;;;;;8.40;5.60;;;14.70;99.90;;;;;;5079675;28;20379;-61
2021/11/19 04:58:46;;;;;;;7.78;5.18;;;14.70;99.90;;;;;;5080973;28;20047;-61
2021/11/19 05:01:19;;;;;;;9.40;5.32;;;14.70;99.90;;;;;;5097608;28;20035;-61
2021/11/19 05:04:10;;;;;;;11.27;6.45;;;14.70;99.90;;;;;;5076161;28;20097;-61
2021/11/19 05:06:39;;;;;;;10.60;5.93;;;14.60;99.90;;;;;;5097665;28;20117;-61
2021/11/19 05:09:09;;;;;;;12.95;6.00;;;14.60;99.90;;;;;;5080823;28;20047;-61
2021/11/19 05:11:52;;;;;;;9.80;5.32;;;14.60;99.90;;;;;;5097591;28;20100;-61
2021/11/19 05:14:21;;;;;;;10.73;5.18;;;14.60;99.90;;;;;;5115594;28;20039;-61
2021/11/19 05:16:50;;;;;;;9.55;5.13;;;14.60;99.90;;;;;;5097179;28;20048;-61
2021/11/19 05:19:18;;;;;;;7.53;5.78;;;14.60;99.90;;;;;;5080393;28;20044;-61
2021/11/19 05:21:45;;;;;;;8.90;5.30;;;14.60;99.90;;;;;;5080578;28;20043;-61
2021/11/19 05:24:14;;;;;;;7.68;5.07;;;14.50;99.90;;;;;;5080455;28;20050;-61
2021/11/19 05:26:45;;;;;;;13.40;6.20;;;14.60;99.90;;;;;;5097287;28;20040;-61
2021/11/19 05:29:14;;;;;;;9.23;5.25;;;14.50;99.90;;;;;;5063794;28;20138;-61
2021/11/19 05:31:43;;;;;;;9.38;5.82;;;14.60;99.90;;;;;;5080623;28;20443;-61
2021/11/19 05:34:13;;;;;;;11.93;7.10;;;14.50;99.90;;;;;;5080518;28;20044;-62
2021/11/19 05:36:42;;;;;;;8.07;5.28;;;14.50;99.90;;;;;;5115044;28;20130;-61
2021/11/19 05:39:10;;;;;;;11.10;6.57;;;14.50;99.90;;;;;;5096587;28;20079;-61
2021/11/19 05:41:43;;;;;;;11.05;5.03;;;14.50;99.90;;;;;;5080220;28;20470;-61
2021/11/19 05:44:12;;;;;;;8.30;5.28;;;14.60;99.90;;;;;;5080062;28;20044;-61
2021/11/19 05:47:11;;;;;;;13.68;6.82;;;14.60;99.90;;;;;;5084443;28;20042;-61
2021/11/19 05:49:42;;;;;;;13.43;6.90;;;14.60;99.90;;;;;;5079940;28;20039;-61
2021/11/19 05:52:10;;;;;;;10.88;5.55;;;14.60;99.90;;;;;;5096559;28;20040;-61
2021/11/19 05:54:40;;;;;;;8.57;6.10;;;14.60;99.90;;;;;;5080139;28;20040;-61
2021/11/19 05:57:10;;;;;;;12.10;7.35;;;14.60;99.90;;;;;;5079689;28;20123;-61
2021/11/19 05:59:38;;;;;;;11.63;6.45;;;14.70;99.90;;;;;;5079760;28;20039;-61
2021/11/19 06:02:09;;;;;;;9.75;7.18;;;14.70;99.90;;;;;;5079700;28;20051;-62
2021/11/19 06:04:55;;;;;;;15.13;6.60;;;14.80;99.90;;;;;;5099439;28;20044;-61
2021/11/19 06:07:29;;;;;;;17.15;6.63;;;14.80;99.90;;;;;;5078549;28;20051;-61
2021/11/19 06:09:59;;;;;;;10.52;5.78;;;14.80;99.90;;;;;;5096314;28;20457;-61
2021/11/19 06:12:34;;;;;;;11.57;6.35;;;14.80;99.90;;;;;;5096310;28;20550;-61
2021/11/19 06:15:10;;;;;;;13.57;7.03;;;15.00;99.90;;;;;;5096248;28;20046;-62
2021/11/19 06:17:41;;;;;;;11.80;6.57;;;15.20;99.90;;;;;;5096298;28;20063;-61
2021/11/19 06:20:33;;;;;;;12.93;7.32;;;15.70;99.90;;;;;;5079556;28;20088;-61
2021/11/19 06:23:26;;;;;;;10.57;6.30;;;16.40;99.90;;;;;;5080514;28;20482;-61
2021/11/19 06:25:54;;;;;;;12.52;5.93;;;17.00;99.90;;;;;;5062622;28;20051;-61
2021/11/19 06:28:32;;;;;;;9.57;5.78;;;17.60;99.90;;;;;;5096255;28;20035;-61
2021/11/19 06:31:01;;;;;;;11.00;6.03;;;18.00;99.90;;;;;;5096189;28;20046;-61
2021/11/19 06:33:29;;;;;;;11.23;5.65;;;18.30;99.90;;;;;;5078988;28;20048;-61
2021/11/19 06:35:57;;;;;;;8.90;6.53;;;18.80;99.90;;;;;;5096011;28;20450;-61
2021/11/19 06:38:26;;;;;;;10.70;6.03;;;19.30;99.90;;;;;;5096076;28;20040;-61
2021/11/19 06:40:58;;;;;;;14.05;6.18;;;19.60;99.90;;;;;;5080107;28;20039;-61
2021/11/19 06:43:33;;;;;;;16.08;6.20;;;19.50;99.90;;;;;;5080038;28;20048;-61
2021/11/19 06:46:23;;;;;;;13.43;6.22;;;18.90;99.90;;;;;;5081913;28;20153;-61
2021/11/19 06:49:14;;;;;;;16.48;6.28;;;18.50;99.90;;;;;;5091353;28;20052;-61
2021/11/19 06:51:54;;;;;;;28.02;7.05;;;18.40;99.90;;;;;;5097972;28;20043;-61
2021/11/19 06:54:57;;;;;;;10.75;6.30;;;18.50;99.90;;;;;;5031395;28;20123;-61
2021/11/19 06:57:32;;;;;;;11.02;5.63;;;19.40;99.90;;;;;;5091994;28;20047;-61
2021/11/19 07:00:00;;;;;;;20.65;8.07;;;20.50;99.90;;;;;;5069130;28;20058;-61
2021/11/19 07:02:28;;;;;;;16.80;6.10;;;21.50;99.90;;;;;;5085943;28;20044;-61
2021/11/19 07:04:56;;;;;;;14.52;7.00;;;22.30;99.90;;;;;;5085743;28;20045;-61
2021/11/19 07:07:24;;;;;;;14.23;6.55;;;22.90;99.90;;;;;;5102494;28;20142;-61
2021/11/19 07:09:52;;;;;;;12.57;6.47;;;23.10;99.90;;;;;;5102213;28;20042;-61
2021/11/19 07:12:21;;;;;;;9.45;6.07;;;22.60;99.90;;;;;;5083068;28;20093;-61
2021/11/19 07:15:04;;;;;;;11.60;6.13;;;21.60;99.90;;;;;;5080430;28;20051;-61
2021/11/19 07:17:33;;;;;;;11.23;6.40;;;20.50;99.90;;;;;;5084241;28;20043;-61
2021/11/19 07:20:06;;;;;;;14.68;8.10;;;19.50;99.90;;;;;;5084319;28;20444;-62
2021/11/19 07:22:34;;;;;;;24.05;9.40;;;18.90;99.90;;;;;;5088234;28;20378;-63
2021/11/19 07:25:08;;;;;;;27.50;8.70;;;18.70;99.90;;;;;;5100312;28;20252;-61
2021/11/19 07:27:36;;;;;;;15.25;8.18;;;18.90;99.90;;;;;;5099593;28;20032;-61
2021/11/19 07:30:11;;;;;;;13.02;6.25;;;18.90;99.90;;;;;;5101352;28;20070;-62
2021/11/19 07:32:58;;;;;;;14.93;6.32;;;19.20;99.90;;;;;;5110462;28;20093;-61
2021/11/19 07:35:53;;;;;;;14.65;6.03;;;19.50;99.90;;;;;;5073164;28;20067;-61
2021/11/19 07:38:48;;;;;;;13.90;6.28;;;19.90;99.90;;;;;;5066222;28;20189;-61
2021/11/19 07:41:34;;;;;;;8.80;4.82;;;20.30;99.90;;;;;;5086045;28;20055;-61
2021/11/19 07:44:19;;;;;;;7.60;4.60;;;20.70;99.90;;;;;;5094889;28;20046;-61
2021/11/19 07:46:51;;;;;;;8.85;4.70;;;21.00;99.90;;;;;;5100999;28;20077;-58
2021/11/19 07:49:21;;;;;;;8.43;4.35;;;21.20;99.90;;;;;;5100411;28;20023;-59
2021/11/19 07:51:51;;;;;;;5.47;4.35;;;21.30;99.90;;;;;;5097928;28;20561;-59
2021/11/19 07:54:21;;;;;;;9.27;4.20;;;21.30;99.90;;;;;;5082592;28;20036;-59
2021/11/19 07:56:49;;;;;;;9.38;4.75;;;21.30;99.90;;;;;;5074897;28;20096;-59
2021/11/19 07:59:22;;;;;;;7.00;4.03;;;21.20;99.90;;;;;;5081201;28;20047;-59
2021/11/19 08:01:50;;;;;;;8.43;4.28;;;21.00;99.90;;;;;;5081580;28;20048;-59
2021/11/19 08:04:19;;;;;;;12.10;4.18;;;20.70;99.90;;;;;;5064325;28;20098;-59
2021/11/19 08:06:51;;;;;;;7.90;3.75;;;20.50;99.90;;;;;;5098377;28;20377;-59
2021/11/19 08:09:38;;;;;;;7.05;3.47;;;20.40;99.90;;;;;;5081859;28;20524;-60
2021/11/19 08:12:14;;;;;;;8.82;4.45;;;20.30;99.90;;;;;;5078526;28;20036;-59
2021/11/19 08:14:48;;;;;;;9.10;4.03;;;20.20;99.90;;;;;;5095177;28;20063;-59
2021/11/19 08:17:30;;;;;;;7.20;4.38;;;20.20;99.90;;;;;;5095227;28;20498;-59
2021/11/19 08:20:10;;;;;;;7.45;3.97;;;20.10;99.90;;;;;;5061670;28;20048;-61
2021/11/19 08:22:37;;;;;;;7.45;4.07;;;20.10;99.90;;;;;;5078385;28;20048;-59
2021/11/19 08:25:06;;;;;;;7.22;3.47;;;20.10;99.90;;;;;;5078379;28;20047;-60
2021/11/19 08:27:40;;;;;;;8.38;4.43;;;20.00;99.90;;;;;;5078170;28;20048;-59
2021/11/19 08:30:14;;;;;;;9.60;3.78;;;20.00;99.90;;;;;;5078139;28;20048;-59
2021/11/19 08:32:42;;;;;;;10.38;3.47;;;19.90;99.90;;;;;;5094998;28;20044;-59
2021/11/19 08:35:10;;;;;;;10.85;4.68;;;20.00;99.90;;;;;;5077882;28;20059;-59
2021/11/19 08:37:38;;;;;;;6.75;3.70;;;20.00;99.90;;;;;;5094649;28;20044;-59
2021/11/19 08:40:10;;;;;;;6.32;4.05;;;20.00;99.90;;;;;;5094743;28;20056;-59
2021/11/19 08:42:40;;;;;;;6.78;3.83;;;20.00;99.90;;;;;;5077690;28;20052;-59
2021/11/19 08:45:09;;;;;;;8.52;4.90;;;20.00;99.90;;;;;;5077196;28;20040;-59
2021/11/19 08:47:49;;;;;;;6.95;3.70;;;19.90;99.90;;;;;;5094470;28;20394;-59
2021/11/19 08:50:28;;;;;;;8.13;3.88;;;19.80;99.90;;;;;;5077529;28;20090;-61
2021/11/19 08:52:59;;;;;;;6.00;4.00;;;19.70;99.90;;;;;;5077818;28;20444;-61
2021/11/19 08:55:27;;;;;;;7.07;3.53;;;19.60;99.90;;;;;;5077653;28;20047;-61
2021/11/19 08:57:57;;;;;;;14.68;4.57;;;19.30;99.90;;;;;;5097530;28;20048;-61
2021/11/19 09:00:29;;;;;;;9.68;3.63;;;19.00;99.90;;;;;;5115927;28;20409;-61
2021/11/19 09:03:00;;;;;;;4.97;3.33;;;19.00;99.90;;;;;;5064385;28;20048;-61
2021/11/19 09:05:29;;;;;;;10.63;4.32;;;19.00;99.90;;;;;;5080803;28;20055;-61
2021/11/19 09:07:57;;;;;;;6.20;4.82;;;19.10;99.90;;;;;;5097837;28;20039;-61
2021/11/19 09:10:25;;;;;;;7.57;3.22;;;19.30;99.90;;;;;;5080101;28;20387;-62
2021/11/19 09:12:52;;;;;;;8.38;3.55;;;19.50;99.90;;;;;;5115851;28;20470;-61
2021/11/19 09:15:23;;;;;;;5.10;3.30;;;19.60;99.90;;;;;;5115600;28;20081;-61
2021/11/19 09:18:00;;;;;;;5.45;4.00;;;19.60;99.90;;;;;;5115452;28;20044;-61
2021/11/19 09:20:40;;;;;;;5.25;3.13;;;19.60;99.90;;;;;;5097022;28;20040;-61
2021/11/19 09:23:14;;;;;;;5.45;3.33;;;19.60;99.90;;;;;;5097519;28;20035;-61
2021/11/19 09:25:45;;;;;;;6.25;3.08;;;19.50;99.90;;;;;;5080696;28;20071;-61
2021/11/19 09:28:14;;;;;;;5.72;3.25;;;19.50;99.90;;;;;;5097509;28;20454;-61
2021/11/19 09:30:45;;;;;;;5.57;3.42;;;19.50;99.90;;;;;;5112357;28;20543;-61
2021/11/19 09:33:17;;;;;;;4.78;2.88;;;19.50;99.90;;;;;;5093568;28;20036;-59
2021/11/19 09:35:45;;;;;;;5.55;3.63;;;19.50;99.90;;;;;;5078810;28;20043;-59
2021/11/19 09:38:15;;;;;;;9.60;3.50;;;19.60;99.90;;;;;;5095565;28;20135;-60
2021/11/19 09:41:01;;;;;;;5.30;3.28;;;19.70;99.90;;;;;;5089885;28;20043;-60
2021/11/19 09:43:43;;;;;;;4.65;3.10;;;19.60;99.90;;;;;;5096590;28;20036;-59
2021/11/19 09:46:26;;;;;;;5.25;3.03;;;19.70;99.90;;;;;;5085219;28;20042;-61
2021/11/19 09:49:03;;;;;;;9.75;3.83;;;19.60;99.90;;;;;;5095213;28;20055;-61
2021/11/19 09:51:46;;;;;;;6.00;3.83;;;19.70;99.90;;;;;;5094701;28;20059;-61
2021/11/19 09:54:58;;;;;;;10.55;3.72;;;19.60;99.90;;;;;;5091834;28;20094;-60
2021/11/19 09:57:41;;;;;;;5.95;3.85;;;19.50;99.90;;;;;;4998287;28;20054;-62
2021/11/19 10:00:34;;;;;;;5.82;4.53;;;19.20;99.90;;;;;;5060126;28;20084;-60
2021/11/19 10:03:38;;;;;;;9.02;4.38;;;19.00;99.90;;;;;;5050802;28;20048;-60
2021/11/19 10:06:15;;;;;;;6.63;3.08;;;19.10;99.90;;;;;;5075376;28;20076;-61
2021/11/19 10:08:58;;;;;;;8.27;4.22;;;19.20;99.90;;;;;;5076648;28;20052;-60
2021/11/19 10:11:35;;;;;;;7.72;3.38;;;19.10;99.90;;;;;;5094035;28;20036;-60
2021/11/19 10:14:22;;;;;;;5.07;3.25;;;19.20;99.90;;;;;;5059708;28;20060;-60
2021/11/19 10:17:08;;;;;;;9.90;4.28;;;19.30;99.90;;;;;;5076200;28;20044;-60
2021/11/19 10:19:44;;;;;;;8.00;4.10;;;19.50;99.90;;;;;;5075704;28;20139;-60
2021/11/19 10:22:21;;;;;;;8.18;4.13;;;19.50;99.90;;;;;;5075957;28;20441;-60
2021/11/19 10:25:05;;;;;;;5.55;4.05;;;19.50;99.90;;;;;;5059232;28;20047;-60
2021/11/19 10:27:43;;;;;;;5.00;3.50;;;19.80;99.90;;;;;;5093906;28;20040;-60
2021/11/19 10:30:26;;;;;;;6.82;3.72;;;20.00;99.90;;;;;;5092660;28;20040;-60
2021/11/19 10:32:59;;;;;;;9.75;3.90;;;20.00;99.90;;;;;;5075646;28;20051;-60
2021/11/19 10:36:08;;;;;;;4.88;2.95;;;19.90;99.90;;;;;;5059500;28;20070;-60
2021/11/19 10:38:57;;;;;;;5.25;3.45;;;19.60;99.90;;;;;;5042576;28;20067;-60
2021/11/19 10:41:53;;;;;;;6.28;3.38;;;19.40;99.90;;;;;;5058947;28;20062;-60
2021/11/19 10:45:05;;;;;;;6.95;4.13;;;19.40;99.90;;;;;;5075814;28;20078;-60
2021/11/19 10:47:42;;;;;;;5.57;3.45;;;19.50;99.90;;;;;;5093444;28;20050;-59
2021/11/19 10:50:35;;;;;;;4.80;3.47;;;19.30;99.90;;;;;;5093491;28;20074;-60
2021/11/19 10:53:23;;;;;;;11.10;3.10;;;19.20;99.90;;;;;;5075423;28;20066;-60
2021/11/19 10:56:10;;;;;;;9.90;3.28;;;19.10;99.90;;;;;;5061318;28;20063;-60
2021/11/19 10:58:49;;;;;;;3.78;2.53;;;19.30;99.90;;;;;;5062116;28;20043;-60
2021/11/19 11:02:02;;;;;;;5.50;3.22;;;19.40;99.90;;;;;;5081800;28;20096;-60
2021/11/19 11:04:50;;;;;;;4.15;2.60;;;19.40;99.90;;;;;;5078898;28;20051;-60
2021/11/19 11:07:23;;;;;;;4.65;2.67;;;19.50;99.90;;;;;;5113539;28;20044;-59
2021/11/19 11:10:11;;;;;;;4.80;3.15;;;19.50;99.90;;;;;;5113925;28;20098;-60
2021/11/19 11:12:45;;;;;;;8.75;2.83;;;19.40;99.90;;;;;;5113916;28;20096;-59
2021/11/19 11:15:15;;;;;;;8.75;3.33;;;19.50;99.90;;;;;;5095856;28;20036;-61
2021/11/19 11:18:11;;;;;;;7.00;2.80;;;19.50;99.90;;;;;;5095820;28;20039;-60
2021/11/19 11:20:57;;;;;;;5.38;2.50;;;19.50;99.90;;;;;;5078652;28;20046;-60
2021/11/19 11:23:39;;;;;;;6.10;2.60;;;19.60;99.90;;;;;;5079048;28;20048;-60
2021/11/19 11:26:12;;;;;;;5.57;3.08;;;19.50;99.90;;;;;;5078979;28;20306;-60
2021/11/19 11:28:43;;;;;;;8.00;3.47;;;19.60;99.90;;;;;;5095488;28;20122;-60
2021/11/19 11:31:32;;;;;;;3.42;2.42;;;19.60;99.90;;;;;;5095481;28;20124;-62
2021/11/19 11:34:35;;;;;;;8.60;3.22;;;19.60;99.90;;;;;;5095499;28;20046;-62
2021/11/19 11:37:06;;;;;;;5.55;2.30;;;19.50;99.90;;;;;;5107515;28;20139;-62
2021/11/19 11:39:55;;;;;;;5.60;3.28;;;19.60;99.90;;;;;;5062463;28;20100;-62
2021/11/19 11:42:49;;;;;;;3.67;2.40;;;19.50;99.90;;;;;;5095976;28;20150;-62
2021/11/19 11:45:32;;;;;;;5.53;2.80;;;19.50;99.90;;;;;;5099277;28;20069;-62
2021/11/19 11:48:31;;;;;;;5.05;2.38;;;19.50;99.90;;;;;;5082661;28;20551;-62
2021/11/19 11:51:06;;;;;;;4.78;2.72;;;19.50;99.90;;;;;;5082399;28;20043;-62
2021/11/19 11:53:53;;;;;;;4.40;2.47;;;19.50;99.90;;;;;;5082442;28;20121;-62
2021/11/19 11:56:31;;;;;;;3.72;2.20;;;19.60;99.90;;;;;;5116708;28;20047;-62
2021/11/19 11:59:33;;;;;;;3.53;2.20;;;19.50;99.90;;;;;;5098753;28;20047;-62
2021/11/19 12:02:54;;;;;;;3.22;2.03;;;19.30;99.90;;;;;;5100442;28;20074;-63
2021/11/19 12:05:50;;;;;;;4.40;2.60;;;19.00;99.90;;;;;;5099087;28;20489;-62
2021/11/19 12:08:37;;;;;;;3.95;2.10;;;18.80;99.90;;;;;;5098832;28;20047;-62
2021/11/19 12:11:42;;;;;;;3.58;2.25;;;18.70;99.90;;;;;;5098906;28;20042;-62
2021/11/19 12:14:12;;;;;;;5.55;2.30;;;18.50;99.90;;;;;;5116944;28;20036;-62
2021/11/19 12:16:53;;;;;;;5.45;2.97;;;18.60;99.90;;;;;;5081492;28;20524;-62
2021/11/19 12:19:33;;;;;;;4.03;2.65;;;18.70;99.90;;;;;;5103339;28;20075;-62
2021/11/19 12:22:14;;;;;;;3.95;1.80;;;18.70;99.90;;;;;;5077938;28;20097;-62
2021/11/19 12:25:08;;;;;;;6.47;2.47;;;18.70;99.90;;;;;;5073382;28;20127;-63
2021/11/19 12:27:51;;;;;;;4.60;2.78;;;18.60;99.90;;;;;;5091018;28;20039;-63
2021/11/19 12:30:41;;;;;;;5.45;2.55;;;18.50;99.90;;;;;;5093844;28;20497;-63
2021/11/19 12:33:20;;;;;;;5.20;2.58;;;18.40;99.90;;;;;;5056773;28;20610;-62
2021/11/19 12:36:03;;;;;;;4.00;2.33;;;18.30;99.90;;;;;;5093001;28;20039;-65
2021/11/19 12:38:36;;;;;;;4.18;1.98;;;18.10;99.90;;;;;;5090975;28;20036;-62
2021/11/19 12:41:21;;;;;;;5.90;1.90;;;18.00;99.90;;;;;;5097133;28;20036;-63
2021/11/19 12:44:22;;;;;;;4.53;2.28;;;18.10;99.90;;;;;;5085422;28;20048;-62
2021/11/19 12:47:02;;;;;;;5.25;2.72;;;18.10;99.90;;;;;;5057320;28;20040;-62
2021/11/19 12:50:17;;;;;;;3.72;2.03;;;18.20;99.90;;;;;;5077800;28;20398;-62
2021/11/19 12:53:18;;;;;;;3.88;2.28;;;18.20;99.90;;;;;;4993945;28;20053;-62
2021/11/19 12:56:05;;;;;;;4.63;3.22;;;18.20;99.90;;;;;;5094783;28;20127;-62
2021/11/19 12:58:56;;;;;;;4.30;2.50;;;18.10;99.90;;;;;;5076977;28;20143;-62
2021/11/19 13:01:34;;;;;;;3.63;2.10;;;18.00;99.90;;;;;;5077817;28;20537;-62
2021/11/19 13:04:30;;;;;;;5.65;2.10;;;18.00;99.90;;;;;;5061181;28;20506;-63
2021/11/19 13:07:01;;;;;;;4.18;2.92;;;18.00;99.90;;;;;;5095102;28;20051;-62
2021/11/19 13:09:32;;;;;;;5.38;2.45;;;17.90;99.90;;;;;;5068995;28;20097;-62
2021/11/19 13:12:20;;;;;;;8.40;2.80;;;17.90;99.90;;;;;;5044280;28;20498;-62
2021/11/19 13:15:19;;;;;;;5.60;2.92;;;17.80;99.90;;;;;;5077875;28;20103;-63
2021/11/19 13:18:06;;;;;;;5.93;2.55;;;17.80;99.90;;;;;;5044187;28;20055;-56
2021/11/19 13:20:49;;;;;;;3.47;1.98;;;17.70;99.90;;;;;;5095203;28;20047;-56
2021/11/19 13:23:29;;;;;;;5.72;3.22;;;17.70;99.90;;;;;;5095033;28;20054;-55
2021/11/19 13:26:22;;;;;;;9.80;3.80;;;17.70;99.90;;;;;;5094817;28;20051;-58
2021/11/19 13:29:06;;;;;;;5.28;3.08;;;17.50;99.90;;;;;;5077185;28;20067;-59
2021/11/19 13:31:36;;;;;;;3.17;2.13;;;17.60;99.90;;;;;;5095044;28;20055;-60
2021/11/19 13:34:04;;;;;;;4.43;1.95;;;17.60;99.20;;;;;;5094712;28;20036;-59
2021/11/19 13:36:40;;;;;;;4.60;2.28;;;17.60;99.10;;;;;;5076327;28;20129;-59